Time;durP1;ratioP1;P1;durP2;ratioP2;P2;SDS_P1;SDS_P2;PMS_P1;PMS_P2;Temp;Humidity;BMP_temperature;BMP_pressure;BME280_temperature;BME280_humidity;BME280_pressure;Samples;Min_cycle;Max_cycle;Signal;HPM_P1;HPM_P2
2023/07/28 00:01:29;;;;;;;0.10;0.10;;;;;;;16.22;100.00;100385.63;5052672;28;20457;-48
2023/07/28 00:03:54;;;;;;;0.10;0.10;;;;;;;16.21;100.00;100381.31;5053519;28;20032;-49
2023/07/28 00:06:20;;;;;;;0.10;0.10;;;;;;;16.21;100.00;100378.69;5053522;28;20068;-49
2023/07/28 00:08:45;;;;;;;0.10;0.10;;;;;;;16.20;100.00;100372.63;5052404;28;20393;-47
2023/07/28 00:11:14;;;;;;;0.10;0.10;;;;;;;16.21;100.00;100378.69;5052582;28;20472;-48
2023/07/28 00:13:40;;;;;;;0.00;0.00;;;;;;;16.22;100.00;100372.63;5052342;28;20028;-46
2023/07/28 00:16:06;;;;;;;0.10;0.10;;;;;;;16.21;100.00;100373.50;5053006;28;20385;-49
2023/07/28 00:18:31;;;;;;;0.10;0.10;;;;;;;16.21;100.00;100369.16;5052732;28;20021;-49
2023/07/28 00:20:57;;;;;;;0.10;0.10;;;;;;;16.22;100.00;100368.28;5052278;28;20119;-48
2023/07/28 00:23:22;;;;;;;0.10;0.10;;;;;;;16.21;100.00;100374.34;5052919;28;20040;-44
2023/07/28 00:25:47;;;;;;;0.10;0.10;;;;;;;16.21;100.00;100369.16;5052985;28;20064;-47
2023/07/28 00:28:13;;;;;;;0.00;0.00;;;;;;;16.22;100.00;100372.63;5052265;28;20032;-48
2023/07/28 00:30:39;;;;;;;0.10;0.10;;;;;;;16.21;100.00;100369.16;5052745;28;20024;-50
2023/07/28 00:33:04;;;;;;;0.10;0.10;;;;;;;16.22;100.00;100362.25;5052780;28;20025;-49
2023/07/28 00:35:30;;;;;;;0.10;0.10;;;;;;;16.21;100.00;100360.50;5052024;28;20094;-47
2023/07/28 00:37:55;;;;;;;0.10;0.10;;;;;;;16.21;100.00;100357.91;5052813;28;20108;-48
2023/07/28 00:40:22;;;;;;;0.10;0.10;;;;;;;16.21;100.00;100357.91;5052968;28;20032;-48
2023/07/28 00:42:47;;;;;;;0.10;0.10;;;;;;;16.21;100.00;100357.91;5051680;28;20051;-50
2023/07/28 00:45:12;;;;;;;0.10;0.10;;;;;;;16.21;100.00;100360.50;5052817;28;20275;-50
2023/07/28 00:47:38;;;;;;;0.10;0.10;;;;;;;16.21;100.00;100357.91;5052389;28;20530;-47
2023/07/28 00:50:04;;;;;;;0.10;0.10;;;;;;;16.22;100.00;100359.63;5052143;28;20578;-49
2023/07/28 00:52:29;;;;;;;0.10;0.10;;;;;;;16.20;100.00;100366.56;5052375;28;20082;-49
2023/07/28 00:54:55;;;;;;;0.10;0.10;;;;;;;16.21;100.00;100360.50;5052624;28;20068;-49
2023/07/28 00:57:20;;;;;;;0.10;0.10;;;;;;;16.22;100.00;100362.25;5051801;28;20029;-48
2023/07/28 00:59:46;;;;;;;0.10;0.10;;;;;;;16.21;100.00;100366.56;5052373;28;20032;-48
2023/07/28 01:02:12;;;;;;;0.00;0.00;;;;;;;16.23;100.00;100363.94;5052483;28;20021;-49
2023/07/28 01:04:37;;;;;;;0.10;0.10;;;;;;;16.22;100.00;100359.63;5051726;28;20025;-48
2023/07/28 01:07:17;;;;;;;0.10;0.10;;;;;;;16.22;100.00;100376.09;5052732;28;20487;-47
2023/07/28 01:10:01;;;;;;;0.10;0.10;;;;;;;16.26;100.00;100376.97;5052293;28;20108;-49
2023/07/28 01:12:26;;;;;;;0.10;0.10;;;;;;;16.24;100.00;100373.47;5052257;28;20029;-47
2023/07/28 01:14:51;;;;;;;0.10;0.10;;;;;;;16.25;100.00;100376.06;5052342;28;20040;-49
2023/07/28 01:17:18;;;;;;;0.00;0.00;;;;;;;16.25;100.00;100385.63;5051895;28;20039;-48
2023/07/28 01:19:43;;;;;;;0.10;0.10;;;;;;;16.23;100.00;100379.53;5052266;28;20057;-48
2023/07/28 01:22:30;;;;;;;0.00;0.00;;;;;;;16.26;100.00;100376.97;5053113;28;20068;-47
2023/07/28 01:25:06;;;;;;;0.10;0.10;;;;;;;16.25;100.00;100383.88;5055705;28;20032;-48
2023/07/28 01:27:32;;;;;;;0.10;0.10;;;;;;;16.26;100.00;100382.16;5056099;28;20013;-49
2023/07/28 01:29:58;;;;;;;0.10;0.10;;;;;;;16.25;100.00;100377.81;5056386;28;20031;-48
2023/07/28 01:32:23;;;;;;;0.10;0.10;;;;;;;16.27;100.00;100374.34;5055022;28;20108;-48
2023/07/28 01:34:48;;;;;;;0.10;0.10;;;;;;;16.28;100.00;100380.41;5056340;28;20028;-48
2023/07/28 01:37:14;;;;;;;0.10;0.10;;;;;;;16.27;100.00;100383.91;5056414;28;20084;-45
2023/07/28 01:39:39;;;;;;;0.03;0.03;;;;;;;16.28;100.00;100385.59;5054980;28;20025;-48
2023/07/28 01:42:04;;;;;;;0.10;0.10;;;;;;;16.27;100.00;100379.56;5055791;28;20397;-46
2023/07/28 01:44:30;;;;;;;0.10;0.10;;;;;;;16.27;100.00;100381.31;5055633;28;20040;-49
2023/07/28 01:46:55;;;;;;;0.10;0.10;;;;;;;16.27;100.00;100389.09;5055130;28;20099;-49
2023/07/28 01:49:20;;;;;;;0.10;0.10;;;;;;;16.26;100.00;100383.00;5055912;28;20025;-49
2023/07/28 01:51:45;;;;;;;0.10;0.10;;;;;;;16.27;100.00;100379.56;5055542;28;20042;-49
2023/07/28 01:54:11;;;;;;;0.10;0.10;;;;;;;16.27;100.00;100384.75;5055323;28;20532;-48
2023/07/28 01:56:36;;;;;;;0.10;0.10;;;;;;;16.28;100.00;100383.00;5055426;28;20035;-48
2023/07/28 01:59:01;;;;;;;0.10;0.10;;;;;;;16.29;100.00;100384.75;5055928;28;20017;-50
2023/07/28 02:01:27;;;;;;;0.10;0.10;;;;;;;16.30;100.00;100389.09;5054677;28;20036;-50
2023/07/28 02:03:52;;;;;;;0.00;0.00;;;;;;;16.32;100.00;100386.47;5055724;28;20028;-49
2023/07/28 02:06:18;;;;;;;0.10;0.10;;;;;;;16.31;100.00;100388.22;5054923;28;20465;-49
2023/07/28 02:08:43;;;;;;;0.10;0.10;;;;;;;16.31;100.00;100388.22;5055092;28;20032;-48
2023/07/28 02:11:09;;;;;;;0.10;0.10;;;;;;;16.33;100.00;100377.81;5055513;28;20056;-47
2023/07/28 02:13:34;;;;;;;0.10;0.10;;;;;;;16.30;100.00;100378.69;5054316;28;20036;-49
2023/07/28 02:15:59;;;;;;;0.10;0.10;;;;;;;16.30;100.00;100376.06;5055650;28;20021;-49
2023/07/28 02:18:25;;;;;;;0.10;0.10;;;;;;;16.29;100.00;100372.63;5055061;28;20056;-50
2023/07/28 02:20:50;;;;;;;0.10;0.10;;;;;;;16.30;100.00;100373.47;5054590;28;20021;-49
2023/07/28 02:23:15;;;;;;;0.10;0.10;;;;;;;16.31;100.00;100375.22;5055183;28;20036;-49
2023/07/28 02:25:41;;;;;;;0.10;0.10;;;;;;;16.30;100.00;100376.94;5054885;28;20020;-48
2023/07/28 02:28:08;;;;;;;0.10;0.10;;;;;;;16.30;100.00;100383.88;5054462;28;20110;-48
2023/07/28 02:30:33;;;;;;;0.10;0.10;;;;;;;16.32;100.00;100383.88;5054981;28;20501;-46
2023/07/28 02:32:58;;;;;;;0.10;0.10;;;;;;;16.30;100.00;100383.88;5055046;28;20021;-45
2023/07/28 02:35:24;;;;;;;0.10;0.10;;;;;;;16.31;100.00;100383.03;5053418;28;20111;-48
2023/07/28 02:37:49;;;;;;;0.10;0.10;;;;;;;16.30;100.00;100384.72;5055073;28;20028;-48
2023/07/28 02:40:14;;;;;;;0.10;0.10;;;;;;;16.32;100.00;100382.16;5054868;28;20064;-45
2023/07/28 02:42:40;;;;;;;0.10;0.10;;;;;;;16.31;100.00;100385.63;5053854;28;20053;-48
2023/07/28 02:45:05;;;;;;;0.10;0.10;;;;;;;16.31;100.00;100383.03;5055120;28;20025;-49
2023/07/28 02:47:31;;;;;;;0.10;0.10;;;;;;;16.31;100.00;100385.63;5054628;28;20528;-47
2023/07/28 02:49:57;;;;;;;0.10;0.10;;;;;;;16.32;100.00;100389.06;5054094;28;20573;-48
2023/07/28 02:52:22;;;;;;;0.10;0.10;;;;;;;16.30;100.00;100389.09;5054679;28;20039;-44
2023/07/28 02:54:47;;;;;;;0.10;0.10;;;;;;;16.29;100.00;100388.22;5054650;28;20139;-48
2023/07/28 02:57:12;;;;;;;0.10;0.10;;;;;;;16.30;100.00;100391.69;5054047;28;20033;-47
2023/07/28 02:59:38;;;;;;;0.10;0.10;;;;;;;16.32;100.00;100397.75;5054492;28;20048;-48
2023/07/28 03:02:03;;;;;;;0.10;0.10;;;;;;;16.31;100.00;100406.41;5054607;28;20408;-44
2023/07/28 03:04:29;;;;;;;0.00;0.00;;;;;;;16.32;100.00;100396.88;5053536;28;20045;-49
2023/07/28 03:06:54;;;;;;;0.10;0.10;;;;;;;16.32;100.00;100399.47;5054462;28;20095;-48
2023/07/28 03:09:20;;;;;;;0.10;0.10;;;;;;;16.32;100.00;100402.06;5054348;28;20029;-48
2023/07/28 03:11:45;;;;;;;0.10;0.10;;;;;;;16.33;100.00;100404.66;5053515;28;20112;-48
2023/07/28 03:14:12;;;;;;;0.10;0.10;;;;;;;16.33;100.00;100404.66;5054175;28;20116;-49
2023/07/28 03:16:38;;;;;;;0.10;0.10;;;;;;;16.33;100.00;100398.63;5053420;28;20017;-48
2023/07/28 03:19:03;;;;;;;0.10;0.10;;;;;;;16.34;100.00;100405.56;5054378;28;20035;-52
2023/07/28 03:21:31;;;;;;;0.10;0.10;;;;;;;16.34;100.00;100403.81;5054052;28;20028;-50
2023/07/28 03:23:56;;;;;;;0.10;0.10;;;;;;;16.35;100.00;100407.28;5053318;28;20457;-47
2023/07/28 03:26:22;;;;;;;0.10;0.10;;;;;;;16.34;100.00;100405.56;5054299;28;20033;-48
2023/07/28 03:28:47;;;;;;;0.10;0.10;;;;;;;16.35;100.00;100413.34;5054195;28;20020;-45
2023/07/28 03:31:12;;;;;;;0.10;0.10;;;;;;;16.34;100.00;100416.81;5053314;28;20388;-50
2023/07/28 03:33:38;;;;;;;0.10;0.10;;;;;;;16.35;100.00;100412.50;5053718;28;20029;-47
2023/07/28 03:36:03;;;;;;;0.10;0.10;;;;;;;16.35;100.00;100415.09;5053857;28;20022;-48
2023/07/28 03:38:28;;;;;;;0.00;0.00;;;;;;;16.35;100.00;100418.53;5052749;28;20018;-46
2023/07/28 03:40:54;;;;;;;0.10;0.10;;;;;;;16.36;100.00;100415.09;5054075;28;20025;-48
2023/07/28 03:43:20;;;;;;;0.10;0.10;;;;;;;16.35;100.00;100418.53;5053844;28;20079;-49
2023/07/28 03:45:46;;;;;;;0.10;0.10;;;;;;;16.34;100.00;100416.81;5051909;28;20071;-47
2023/07/28 03:48:11;;;;;;;0.10;0.10;;;;;;;16.35;100.00;100428.94;5053939;28;20029;-49
2023/07/28 03:50:37;;;;;;;0.10;0.10;;;;;;;16.36;100.00;100428.09;5053446;28;20033;-47
2023/07/28 03:53:02;;;;;;;0.10;0.10;;;;;;;16.35;100.00;100428.09;5052573;28;20103;-46
2023/07/28 03:55:27;;;;;;;0.10;0.10;;;;;;;16.34;100.00;100427.22;5053426;28;20362;-49
2023/07/28 03:57:53;;;;;;;0.10;0.10;;;;;;;16.35;100.00;100439.34;5053623;28;20033;-47
2023/07/28 04:00:18;;;;;;;0.10;0.10;;;;;;;16.35;100.00;100439.34;5052744;28;20033;-48
2023/07/28 04:02:43;;;;;;;0.10;0.10;;;;;;;16.34;100.00;100431.56;5053109;28;20029;-45
2023/07/28 04:05:09;;;;;;;0.10;0.10;;;;;;;16.34;100.00;100426.34;5053308;28;20033;-49
2023/07/28 04:07:34;;;;;;;0.10;0.10;;;;;;;16.32;100.00;100428.09;5052186;28;20036;-46
2023/07/28 04:09:59;;;;;;;0.10;0.10;;;;;;;16.32;100.00;100428.97;5053446;28;20067;-48
2023/07/28 04:12:25;;;;;;;0.10;0.10;;;;;;;16.35;100.00;100435.91;5053141;28;20060;-44
2023/07/28 04:14:50;;;;;;;0.10;0.10;;;;;;;16.33;100.00;100435.88;5052301;28;20112;-50
2023/07/28 04:17:15;;;;;;;0.10;0.10;;;;;;;16.34;100.00;100437.63;5053068;28;20032;-47
2023/07/28 04:19:41;;;;;;;0.13;0.13;;;;;;;16.32;100.00;100441.09;5052944;28;20120;-48
2023/07/28 04:22:06;;;;;;;0.10;0.10;;;;;;;16.33;100.00;100430.66;5052204;28;20027;-48
2023/07/28 04:24:31;;;;;;;0.13;0.10;;;;;;;16.34;100.00;100436.75;5052984;28;20064;-48
2023/07/28 04:26:57;;;;;;;0.10;0.10;;;;;;;16.35;100.00;100435.91;5052381;28;20386;-49
2023/07/28 04:29:22;;;;;;;0.15;0.10;;;;;;;16.33;100.00;100433.28;5052555;28;20017;-45
2023/07/28 04:31:47;;;;;;;0.10;0.10;;;;;;;16.34;100.00;100435.00;5053015;28;20059;-48
2023/07/28 04:34:13;;;;;;;0.10;0.10;;;;;;;16.32;100.00;100423.75;5052174;28;20514;-48
2023/07/28 04:36:38;;;;;;;0.10;0.10;;;;;;;16.33;100.00;100435.03;5052430;28;20481;-47
2023/07/28 04:39:03;;;;;;;0.10;0.10;;;;;;;16.31;100.00;100432.44;5052905;28;20061;-49
2023/07/28 04:41:29;;;;;;;0.20;0.20;;;;;;;16.32;100.00;100428.97;5051875;28;20104;-49
2023/07/28 04:43:54;;;;;;;0.10;0.10;;;;;;;16.31;100.00;100419.44;5052619;28;20054;-50
2023/07/28 04:46:20;;;;;;;0.10;0.10;;;;;;;16.28;100.00;100427.22;5052859;28;20110;-48
2023/07/28 04:48:46;;;;;;;0.10;0.10;;;;;;;16.26;100.00;100421.16;5051572;28;20104;-49
2023/07/28 04:51:11;;;;;;;0.10;0.10;;;;;;;16.24;100.00;100422.88;5052740;28;20457;-47
2023/07/28 04:53:36;;;;;;;0.10;0.10;;;;;;;16.24;100.00;100430.69;5052250;28;20107;-49
2023/07/28 04:56:03;;;;;;;0.10;0.10;;;;;;;16.24;100.00;100430.69;5052115;28;20028;-50
2023/07/28 04:58:28;;;;;;;0.10;0.10;;;;;;;16.28;100.00;100437.63;5057847;28;20032;-47
2023/07/28 05:00:54;;;;;;;0.10;0.10;;;;;;;16.32;100.00;100436.78;5059385;28;20021;-49
2023/07/28 05:03:19;;;;;;;0.20;0.20;;;;;;;16.32;100.00;100434.16;5058309;28;20532;-49
2023/07/28 05:05:45;;;;;;;0.10;0.10;;;;;;;16.35;100.00;100434.16;5058992;28;20025;-46
2023/07/28 05:08:10;;;;;;;0.20;0.20;;;;;;;16.42;100.00;100432.41;5058993;28;20469;-47
2023/07/28 05:10:36;;;;;;;0.10;0.10;;;;;;;16.44;100.00;100438.50;5058288;28;20071;-47
2023/07/28 05:13:04;;;;;;;0.10;0.10;;;;;;;16.46;100.00;100435.00;5059302;28;20021;-48
2023/07/28 05:15:29;;;;;;;0.10;0.10;;;;;;;16.51;100.00;100444.53;5059102;28;20021;-48
2023/07/28 05:17:55;;;;;;;0.10;0.10;;;;;;;16.56;100.00;100451.47;5058921;28;20040;-46
2023/07/28 05:20:20;;;;;;;0.10;0.10;;;;;;;16.62;100.00;100455.81;5059079;28;20028;-48
2023/07/28 05:22:45;;;;;;;0.10;0.10;;;;;;;16.59;100.00;100458.38;5058768;28;20025;-50
2023/07/28 05:25:11;;;;;;;0.10;0.10;;;;;;;16.63;100.00;100460.16;5058320;28;20021;-49
2023/07/28 05:27:36;;;;;;;0.10;0.10;;;;;;;16.62;100.00;100463.59;5058925;28;20480;-50
2023/07/28 05:30:01;;;;;;;0.10;0.10;;;;;;;16.67;100.00;100467.06;5059074;28;20025;-45
2023/07/28 05:32:27;;;;;;;0.10;0.10;;;;;;;16.66;100.00;100469.69;5057934;28;20108;-49
2023/07/28 05:34:52;;;;;;;0.10;0.10;;;;;;;16.64;100.00;100467.06;5058977;28;20037;-45
2023/07/28 05:37:17;;;;;;;0.10;0.10;;;;;;;16.68;100.00;100471.41;5058115;28;20041;-45
2023/07/28 05:39:44;;;;;;;0.10;0.10;;;;;;;16.68;100.00;100470.53;5058954;28;20059;-45
2023/07/28 05:42:09;;;;;;;0.10;0.10;;;;;;;16.75;100.00;100488.72;5058801;28;20384;-45
2023/07/28 05:44:34;;;;;;;0.10;0.10;;;;;;;16.74;100.00;100487.00;5057768;28;20032;-48
2023/07/28 05:47:00;;;;;;;0.10;0.10;;;;;;;16.75;100.00;100483.53;5059095;28;20041;-46
2023/07/28 05:49:25;;;;;;;0.10;0.10;;;;;;;16.75;100.00;100480.91;5058636;28;20033;-44
2023/07/28 05:51:50;;;;;;;0.10;0.10;;;;;;;16.77;100.00;100486.13;5058072;28;20041;-49
2023/07/28 05:54:16;;;;;;;0.10;0.10;;;;;;;16.76;100.00;100482.66;5058983;28;20118;-48
2023/07/28 05:56:42;;;;;;;0.10;0.10;;;;;;;16.78;100.00;100488.75;5058850;28;20028;-44
2023/07/28 05:59:07;;;;;;;0.10;0.10;;;;;;;16.83;100.00;100482.66;5058242;28;20021;-47
2023/07/28 06:01:33;;;;;;;0.10;0.10;;;;;;;16.83;100.00;100493.06;5058472;28;20382;-46
2023/07/28 06:03:59;;;;;;;0.10;0.10;;;;;;;16.90;100.00;100490.47;5058882;28;20040;-46
2023/07/28 06:06:27;;;;;;;0.10;0.10;;;;;;;16.93;100.00;100494.81;5057597;28;20017;-48
2023/07/28 06:08:53;;;;;;;0.10;0.10;;;;;;;16.94;100.00;100486.13;5056779;28;20096;-43
2023/07/28 06:11:19;;;;;;;0.10;0.10;;;;;;;16.96;100.00;100486.97;5055839;28;20028;-45
2023/07/28 06:13:46;;;;;;;0.10;0.10;;;;;;;17.09;100.00;100493.03;5054540;28;20029;-44
2023/07/28 06:16:11;;;;;;;0.03;0.03;;;;;;;17.16;100.00;100492.16;5055706;28;20029;-46
2023/07/28 06:18:37;;;;;;;0.10;0.10;;;;;;;17.19;100.00;100496.47;5055243;28;20032;-49
2023/07/28 06:21:02;;;;;;;0.10;0.10;;;;;;;17.25;100.00;100497.31;5054619;28;20021;-46
2023/07/28 06:23:28;;;;;;;0.05;0.05;;;;;;;17.28;100.00;100496.44;5054975;28;20035;-46
2023/07/28 06:25:54;;;;;;;0.10;0.10;;;;;;;17.35;100.00;100499.88;5055179;28;20522;-46
2023/07/28 06:28:20;;;;;;;0.10;0.10;;;;;;;17.30;100.00;100494.72;5054373;28;20033;-47
2023/07/28 06:30:45;;;;;;;0.10;0.10;;;;;;;17.31;100.00;100499.03;5054939;28;20021;-47
2023/07/28 06:33:11;;;;;;;0.10;0.10;;;;;;;17.28;100.00;100506.84;5055004;28;20025;-44
2023/07/28 06:35:36;;;;;;;0.10;0.10;;;;;;;17.31;100.00;100508.59;5053937;28;20025;-46
2023/07/28 06:38:03;;;;;;;0.10;0.10;;;;;;;17.33;100.00;100509.47;5055231;28;20031;-46
2023/07/28 06:40:28;;;;;;;0.10;0.10;;;;;;;17.38;100.00;100515.50;5054791;28;20027;-48
2023/07/28 06:42:54;;;;;;;0.10;0.10;;;;;;;17.35;100.00;100519.00;5054410;28;20120;-46
2023/07/28 06:45:20;;;;;;;0.10;0.10;;;;;;;17.38;100.00;100518.13;5054886;28;20036;-45
2023/07/28 06:47:45;;;;;;;0.10;0.10;;;;;;;17.40;100.00;100518.97;5053733;28;20048;-45
2023/07/28 06:50:11;;;;;;;0.10;0.10;;;;;;;17.49;100.00;100520.66;5054769;28;20036;-45
2023/07/28 06:52:37;;;;;;;0.10;0.10;;;;;;;17.51;100.00;100525.00;5054632;28;20017;-45
2023/07/28 06:55:02;;;;;;;0.10;0.10;;;;;;;17.50;100.00;100522.41;5053988;28;20086;-45
2023/07/28 06:57:28;;;;;;;0.10;0.10;;;;;;;17.50;100.00;100525.88;5054245;28;20381;-44
2023/07/28 06:59:53;;;;;;;0.10;0.10;;;;;;;17.54;100.00;100530.19;5054697;28;20067;-45
2023/07/28 07:02:18;;;;;;;0.10;0.10;;;;;;;17.51;100.00;100524.16;5053726;28;20462;-46
2023/07/28 07:04:43;;;;;;;0.10;0.10;;;;;;;17.52;100.00;100528.47;5054239;28;20060;-48
2023/07/28 07:07:09;;;;;;;0.00;0.00;;;;;;;17.60;100.00;100529.31;5054708;28;20075;-45
2023/07/28 07:09:34;;;;;;;0.10;0.10;;;;;;;17.60;100.00;100539.75;5053436;28;20112;-49
2023/07/28 07:12:00;;;;;;;0.08;0.08;;;;;;;17.64;100.00;100540.56;5054359;28;20080;-48
2023/07/28 07:14:25;;;;;;;0.10;0.10;;;;;;;17.67;100.00;100540.56;5053821;28;20477;-45
2023/07/28 07:16:51;;;;;;;0.10;0.10;;;;;;;17.68;100.00;100537.94;5052805;28;20108;-49
2023/07/28 07:19:16;;;;;;;0.08;0.08;;;;;;;17.70;100.00;100537.94;5054006;28;20029;-45
2023/07/28 07:21:42;;;;;;;0.08;0.08;;;;;;;17.71;100.00;100550.94;5053575;28;20067;-45
2023/07/28 07:24:07;;;;;;;0.10;0.10;;;;;;;17.72;100.00;100549.25;5052458;28;20121;-44
2023/07/28 07:26:33;;;;;;;0.00;0.00;;;;;;;17.70;100.00;100550.97;5054019;28;20070;-47
2023/07/28 07:28:58;;;;;;;0.10;0.10;;;;;;;17.74;100.00;100561.38;5054213;28;20025;-44
2023/07/28 07:31:24;;;;;;;0.10;0.10;;;;;;;17.74;100.00;100553.56;5052922;28;20421;-44
2023/07/28 07:33:49;;;;;;;0.10;0.10;;;;;;;17.74;100.00;100553.56;5053784;28;20036;-44
2023/07/28 07:36:16;;;;;;;0.10;0.10;;;;;;;17.75;100.00;100560.53;5054023;28;20033;-46
2023/07/28 07:38:42;;;;;;;0.10;0.10;;;;;;;17.74;100.00;100565.72;5052989;28;20025;-47
2023/07/28 07:41:08;;;;;;;0.10;0.10;;;;;;;17.79;100.00;100566.56;5053967;28;20031;-45
2023/07/28 07:43:34;;;;;;;0.10;0.10;;;;;;;17.84;100.00;100564.78;5053250;28;20393;-47
2023/07/28 07:45:59;;;;;;;0.00;0.00;;;;;;;17.87;100.00;100569.13;5052968;28;20029;-45
2023/07/28 07:48:25;;;;;;;0.10;0.10;;;;;;;17.81;100.00;100571.78;5053279;28;20017;-47
2023/07/28 07:50:51;;;;;;;0.10;0.10;;;;;;;17.78;100.00;100570.91;5053316;28;20411;-44
2023/07/28 07:53:17;;;;;;;0.00;0.00;;;;;;;17.78;100.00;100570.91;5053727;28;20051;-45
2023/07/28 07:55:42;;;;;;;0.10;0.10;;;;;;;17.76;100.00;100582.22;5053417;28;20040;-44
2023/07/28 07:58:07;;;;;;;0.10;0.10;;;;;;;17.77;100.00;100574.41;5052893;28;20029;-47
2023/07/28 08:00:33;;;;;;;0.10;0.10;;;;;;;17.72;100.00;100576.16;5053215;28;20017;-44
2023/07/28 08:02:59;;;;;;;0.00;0.00;;;;;;;17.72;100.00;100581.38;5053388;28;20032;-46
2023/07/28 08:05:24;;;;;;;0.00;0.00;;;;;;;17.75;100.00;100581.38;5052556;28;20029;-44
2023/07/28 08:07:50;;;;;;;0.10;0.10;;;;;;;17.70;100.00;100577.91;5053508;28;20044;-44
2023/07/28 08:10:16;;;;;;;0.00;0.00;;;;;;;17.68;100.00;100578.78;5053318;28;20385;-45
2023/07/28 08:12:44;;;;;;;0.10;0.10;;;;;;;17.65;100.00;100574.47;5052299;28;20063;-47
2023/07/28 08:15:10;;;;;;;0.10;0.10;;;;;;;17.66;100.00;100586.59;5053215;28;20029;-45
2023/07/28 08:17:35;;;;;;;0.10;0.10;;;;;;;17.71;100.00;100582.22;5052942;28;20031;-50
2023/07/28 08:20:00;;;;;;;0.00;0.00;;;;;;;17.75;100.00;100586.59;5052582;28;20051;-46
2023/07/28 08:22:26;;;;;;;0.10;0.10;;;;;;;17.83;100.00;100585.66;5052966;28;20063;-46
2023/07/28 08:24:51;;;;;;;0.10;0.10;;;;;;;17.86;100.00;100583.06;5053139;28;20114;-49
2023/07/28 08:27:16;;;;;;;0.10;0.10;;;;;;;17.88;100.00;100591.72;5052245;28;20017;-48
2023/07/28 08:29:42;;;;;;;0.00;0.00;;;;;;;17.93;100.00;100590.00;5052812;28;20037;-46
2023/07/28 08:32:08;;;;;;;0.00;0.00;;;;;;;17.93;100.00;100595.22;5052443;28;20374;-44
2023/07/28 08:34:33;;;;;;;0.10;0.10;;;;;;;18.04;100.00;100593.41;5051597;28;20033;-44
2023/07/28 08:36:58;;;;;;;0.00;0.00;;;;;;;18.12;100.00;100593.38;5052895;28;20028;-47
2023/07/28 08:39:23;;;;;;;0.00;0.00;;;;;;;18.19;100.00;100595.09;5052510;28;20024;-48
2023/07/28 08:41:57;;;;;;;0.00;0.00;;;;;;;18.42;100.00;100604.50;5051945;28;20032;-47
2023/07/28 08:44:23;;;;;;;0.03;0.03;;;;;;;18.42;100.00;100600.16;5052547;28;20523;-46
2023/07/28 08:46:48;;;;;;;0.00;0.00;;;;;;;18.42;100.00;100600.16;5052816;28;20033;-47
2023/07/28 08:49:13;;;;;;;0.00;0.00;;;;;;;18.39;100.00;100605.38;5052129;28;20078;-48
2023/07/28 08:51:42;;;;;;;0.00;0.00;;;;;;;18.39;100.00;100609.75;5052541;28;20041;-45
2023/07/28 08:54:07;;;;;;;0.00;0.00;;;;;;;18.51;100.00;100598.34;5052174;28;20384;-45
2023/07/28 08:56:33;;;;;;;0.10;0.10;;;;;;;18.58;100.00;100610.50;5052269;28;20025;-46
2023/07/28 08:58:59;;;;;;;0.10;0.10;;;;;;;18.62;100.00;100606.09;5052600;28;20032;-46
2023/07/28 09:01:25;;;;;;;0.00;0.00;;;;;;;18.71;100.00;100612.13;5051721;28;20071;-44
2023/07/28 09:03:50;;;;;;;0.08;0.08;;;;;;;18.87;100.00;100606.78;5052749;28;20025;-44
2023/07/28 09:06:15;;;;;;;0.05;0.05;;;;;;;18.98;100.00;100607.59;5052751;28;20100;-49
2023/07/28 09:08:43;;;;;;;0.00;0.00;;;;;;;19.12;100.00;100611.78;5051643;28;20021;-44
2023/07/28 09:11:08;;;;;;;;;;;;;;;19.36;100.00;100611.53;5052990;28;20076;-43
2023/07/28 09:13:39;;;;;;;0.00;0.00;;;;;;;19.15;100.00;100615.25;5052125;28;19959;-44
2023/07/28 09:16:05;;;;;;;0.00;0.00;;;;;;;19.14;100.00;100615.28;5051613;28;20452;-49
2023/07/28 09:18:30;;;;;;;0.10;0.10;;;;;;;19.07;100.00;100615.31;5052373;28;20481;-48
2023/07/28 09:20:56;;;;;;;0.00;0.00;;;;;;;19.26;100.00;100620.34;5052578;28;20029;-49
2023/07/28 09:23:30;;;;;;;0.00;0.00;;;;;;;19.33;100.00;100615.97;5051614;28;20040;-45
2023/07/28 09:26:01;;;;;;;0.00;0.00;;;;;;;19.34;100.00;100618.56;5052389;28;20013;-46
2023/07/28 09:28:45;;;;;;;0.00;0.00;;;;;;;19.44;100.00;100614.06;5051950;28;20021;-44
2023/07/28 09:31:11;;;;;;;0.00;0.00;;;;;;;19.40;100.00;100612.38;5051593;28;20376;-49
2023/07/28 09:33:37;;;;;;;0.00;0.00;;;;;;;19.51;100.00;100615.75;5052133;28;20021;-50
2023/07/28 09:36:16;;;;;;;0.00;0.00;;;;;;;19.74;100.00;100627.69;5052433;28;20029;-48
2023/07/28 09:38:42;;;;;;;0.00;0.00;;;;;;;19.99;100.00;100612.59;5051123;28;20035;-48
2023/07/28 09:41:10;;;;;;;0.00;0.00;;;;;;;20.11;100.00;100621.16;5052206;28;20100;-46
2023/07/28 09:43:39;;;;;;;0.00;0.00;;;;;;;20.54;100.00;100617.91;5051010;28;20053;-46
2023/07/28 09:46:07;;;;;;;0.00;0.00;;;;;;;20.73;100.00;100613.28;5055896;28;20021;-48
2023/07/28 09:48:34;;;;;;;0.00;0.00;;;;;;;20.97;100.00;100614.63;5055823;28;20051;-45
2023/07/28 09:51:06;;;;;;;0.00;0.00;;;;;;;21.15;100.00;100618.69;5055269;28;20025;-47
2023/07/28 09:53:38;;;;;;;0.00;0.00;;;;;;;21.12;100.00;100612.63;5055359;28;20118;-49
2023/07/28 09:56:04;;;;;;;0.00;0.00;;;;;;;21.25;100.00;100614.13;5055811;28;20112;-49
2023/07/28 09:58:34;;;;;;;0.00;0.00;;;;;;;21.33;100.00;100621.84;5054813;28;20116;-48
2023/07/28 10:01:00;;;;;;;0.00;0.00;;;;;;;21.38;100.00;100615.63;5055708;28;20053;-47
2023/07/28 10:03:26;;;;;;;0.00;0.00;;;;;;;21.60;100.00;100620.50;5055510;28;20473;-46
2023/07/28 10:05:52;;;;;;;0.00;0.00;;;;;;;21.78;100.00;100626.25;5054804;28;20079;-49
2023/07/28 10:08:17;;;;;;;0.00;0.00;;;;;;;21.57;100.00;100620.53;5055826;28;20032;-49
2023/07/28 10:10:43;;;;;;;0.00;0.00;;;;;;;21.43;100.00;100622.53;5055377;28;20025;-47
2023/07/28 10:13:19;;;;;;;0.00;0.00;;;;;;;21.65;100.00;100625.63;5054759;28;20021;-46
2023/07/28 10:15:46;;;;;;;0.00;0.00;;;;;;;22.00;100.00;100624.03;5055176;28;20021;-45
2023/07/28 10:18:12;;;;;;;0.00;0.00;;;;;;;22.30;100.00;100622.50;5055361;28;20067;-44
2023/07/28 10:20:40;;;;;;;0.00;0.00;;;;;;;22.14;100.00;100621.13;5054217;28;20028;-45
2023/07/28 10:23:07;;;;;;;;;;;;;;;22.62;100.00;100623.56;5055936;28;20044;-48
2023/07/28 10:25:36;;;;;;;;;;;;;;;22.82;100.00;100624.81;5055358;28;19987;-45
2023/07/28 10:28:02;;;;;;;0.00;0.00;;;;;;;22.62;100.00;100623.56;5055297;28;19942;-49
2023/07/28 10:30:28;;;;;;;0.00;0.00;;;;;;;22.80;100.00;100621.38;5054902;28;20473;-46
2023/07/28 10:32:55;;;;;;;0.00;0.00;;;;;;;22.76;100.00;100624.97;5054253;28;20066;-47
2023/07/28 10:35:26;;;;;;;0.00;0.00;;;;;;;22.88;100.00;100626.44;5055337;28;20103;-48
2023/07/28 10:37:56;;;;;;;0.00;0.00;;;;;;;22.74;100.00;100626.78;5055292;28;20029;-47
2023/07/28 10:40:35;;;;;;;0.00;0.00;;;;;;;23.38;100.00;100629.53;5054398;28;20055;-45
2023/07/28 10:43:01;;;;;;;0.00;0.00;;;;;;;23.44;95.74;100618.84;5054824;28;20037;-48
2023/07/28 10:45:29;;;;;;;0.00;0.00;;;;;;;23.71;95.28;100618.97;5054670;28;20127;-45
2023/07/28 10:47:56;;;;;;;0.00;0.00;;;;;;;23.93;95.41;100626.28;5054087;28;20495;-47
2023/07/28 10:50:28;;;;;;;0.00;0.00;;;;;;;24.11;93.11;100636.25;5055065;28;20032;-48
2023/07/28 10:52:53;;;;;;;0.00;0.00;;;;;;;23.95;89.75;100624.44;5054873;28;20075;-44
2023/07/28 10:55:21;;;;;;;0.00;0.00;;;;;;;23.74;91.13;100628.56;5053452;28;20036;-47
2023/07/28 10:57:48;;;;;;;0.00;0.00;;;;;;;23.74;92.36;100621.50;5054369;28;20057;-46
2023/07/28 11:00:15;;;;;;;;;;;;;;;24.30;92.81;100625.19;5055003;28;20024;-49
2023/07/28 11:02:48;;;;;;;0.00;0.00;;;;;;;24.87;88.93;100626.00;5053463;28;20403;-44
2023/07/28 11:05:18;;;;;;;0.00;0.00;;;;;;;25.06;85.58;100628.00;5054651;28;20075;-46
2023/07/28 11:07:44;;;;;;;0.00;0.00;;;;;;;24.99;84.36;100625.56;5054308;28;20029;-45
2023/07/28 11:10:11;;;;;;;0.00;0.00;;;;;;;24.96;82.58;100619.56;5053812;28;20100;-44
2023/07/28 11:12:42;;;;;;;0.00;0.00;;;;;;;24.93;86.22;100623.16;5054163;28;20028;-48
2023/07/28 11:15:13;;;;;;;0.00;0.00;;;;;;;25.52;80.60;100618.47;5053735;28;20331;-45